createdAt,value
2024-02-01T00:00:28.855Z,12.37
2024-02-01T00:03:02.666Z,12.42
2024-02-01T00:05:53.449Z,12.39
2024-02-01T00:08:51.526Z,12.41
2024-02-01T00:12:31.154Z,12.40
2024-02-01T00:15:03.201Z,12.38
2024-02-01T00:17:35.237Z,12.40
2024-02-01T00:20:09.200Z,12.41
2024-02-01T00:22:42.191Z,12.43
2024-02-01T00:25:32.739Z,12.36
2024-02-01T00:28:02.401Z,12.29
2024-02-01T00:30:57.200Z,12.24
2024-02-01T00:33:30.814Z,12.22
2024-02-01T00:36:05.788Z,12.19
2024-02-01T00:38:55.663Z,12.20
2024-02-01T00:41:31.449Z,12.11
2024-02-01T00:44:01.885Z,12.16
2024-02-01T00:51:02.030Z,12.25
2024-02-01T00:54:22.796Z,12.21
2024-02-01T00:57:55.528Z,12.11
2024-02-01T01:01:10.383Z,12.26
2024-02-01T01:07:01.430Z,12.15
2024-02-01T01:09:43.132Z,12.19
2024-02-01T01:12:34.869Z,12.15
2024-02-01T01:15:08.705Z,12.10
2024-02-01T01:20:26.806Z,11.80
2024-02-01T01:23:01.585Z,12.01
2024-02-01T01:25:35.006Z,11.97
2024-02-01T01:28:04.942Z,11.73
2024-02-01T01:30:59.872Z,11.68
2024-02-01T01:34:00.876Z,11.61
2024-02-01T01:43:28.012Z,11.53
2024-02-01T01:45:46.147Z,11.57
2024-02-01T01:48:37.017Z,11.49
2024-02-01T01:51:51.093Z,11.58
2024-02-01T01:54:27.478Z,11.40
2024-02-01T01:59:59.738Z,11.20
2024-02-01T02:05:19.312Z,11.26
2024-02-01T02:07:54.636Z,11.13
2024-02-01T02:10:43.038Z,11.11
2024-02-01T02:16:42.057Z,11.23
2024-02-01T02:19:16.505Z,11.26
2024-02-01T02:24:37.463Z,11.33
2024-02-01T02:27:30.554Z,11.35
2024-02-01T02:30:03.309Z,11.29
2024-02-01T02:35:52.667Z,11.23
2024-02-01T02:38:27.474Z,11.31
2024-02-01T02:41:05.205Z,11.22
2024-02-01T02:43:54.898Z,11.30
2024-02-01T02:46:27.466Z,11.21
2024-02-01T02:49:01.951Z,11.35
2024-02-01T02:51:32.320Z,11.47
2024-02-01T02:54:21.367Z,11.55
2024-02-01T02:56:53.666Z,11.64
2024-02-01T02:59:26.294Z,11.75
2024-02-01T03:04:58.940Z,11.73
2024-02-01T03:10:39.749Z,11.24
2024-02-01T03:10:41.784Z,11.50
2024-02-01T03:13:16.974Z,11.52
2024-02-01T03:15:55.250Z,11.42
2024-02-01T03:18:43.445Z,11.49
2024-02-01T03:21:17.620Z,11.45
2024-02-01T03:23:53.718Z,11.55
2024-02-01T03:26:43.457Z,11.45
2024-02-01T03:29:19.970Z,11.47
2024-02-01T03:32:04.871Z,11.37
2024-02-01T03:34:39.807Z,11.34
2024-02-01T03:37:33.449Z,11.42
2024-02-01T03:40:07.078Z,11.54
2024-02-01T03:42:40.317Z,11.57
2024-02-01T03:45:55.514Z,11.64
2024-02-01T03:48:36.896Z,11.75
2024-02-01T03:54:22.234Z,11.89
2024-02-01T03:57:22.819Z,11.84
2024-02-01T03:59:55.898Z,11.97
2024-02-01T04:02:43.746Z,11.76
2024-02-01T04:05:17.976Z,11.59
2024-02-01T04:07:51.766Z,11.38
2024-02-01T04:10:48.770Z,11.64
2024-02-01T04:14:37.311Z,11.67
2024-02-01T04:16:57.630Z,11.68
2024-02-01T04:19:34.397Z,11.77
2024-02-01T04:22:04.711Z,11.71
2024-02-01T04:24:38.154Z,11.83
2024-02-01T04:27:08.272Z,11.89
2024-02-01T04:29:42.409Z,11.94
2024-02-01T04:32:25.947Z,12.02
2024-02-01T04:35:08.614Z,12.04
2024-02-01T04:38:02.103Z,11.94
2024-02-01T04:40:35.171Z,11.95
2024-02-01T04:43:30.385Z,11.74
2024-02-01T04:46:22.865Z,11.41
2024-02-01T04:51:53.507Z,11.27
2024-02-01T04:57:23.234Z,11.37
2024-02-01T05:06:12.850Z,11.49
2024-02-01T05:09:25.342Z,11.56
2024-02-01T05:12:04.476Z,11.43
2024-02-01T05:15:18.983Z,11.39
2024-02-01T05:18:16.603Z,11.63
2024-02-01T05:20:49.936Z,11.74
2024-02-01T05:27:35.081Z,11.85
2024-02-01T05:30:31.200Z,11.86
2024-02-01T05:33:41.876Z,11.83
2024-02-01T05:37:03.412Z,11.82
2024-02-01T05:43:04.305Z,11.75
2024-02-01T05:46:03.717Z,11.78
2024-02-01T05:48:56.165Z,11.75
2024-02-01T05:54:26.968Z,11.69
2024-02-01T05:57:36.639Z,11.71
2024-02-01T06:00:15.215Z,11.73
2024-02-01T06:02:47.311Z,11.59
2024-02-01T06:06:01.783Z,11.59
2024-02-01T06:08:33.504Z,11.58
2024-02-01T06:11:10.813Z,11.57
2024-02-01T06:14:02.245Z,11.67
2024-02-01T06:16:32.203Z,11.69
2024-02-01T06:19:08.015Z,11.77
2024-02-01T06:22:06.554Z,11.82
2024-02-01T06:24:50.733Z,11.59
2024-02-01T06:27:28.173Z,11.64
2024-02-01T06:30:19.543Z,11.79
2024-02-01T06:33:21.225Z,11.82
2024-02-01T06:45:48.793Z,11.69
2024-02-01T06:46:17.711Z,11.69
2024-02-01T06:48:53.698Z,11.68
2024-02-01T06:51:41.323Z,11.67
2024-02-01T06:54:40.084Z,11.54
2024-02-01T06:57:20.527Z,11.36
2024-02-01T07:00:31.230Z,11.33
2024-02-01T07:04:28.772Z,11.33
2024-02-01T07:07:38.302Z,11.10
2024-02-01T07:10:35.173Z,10.91
2024-02-01T07:13:13.985Z,10.93
2024-02-01T07:18:39.120Z,10.80
2024-02-01T07:21:32.205Z,10.95
2024-02-01T07:24:30.889Z,10.96
2024-02-01T07:27:21.501Z,11.01
2024-02-01T07:30:42.482Z,10.94
2024-02-01T07:33:37.716Z,10.84
2024-02-01T07:36:35.703Z,10.95
2024-02-01T07:39:29.535Z,11.08
2024-02-01T07:42:24.555Z,11.11
2024-02-01T07:45:24.350Z,10.94
2024-02-01T07:48:21.147Z,10.92
2024-02-01T07:51:23.925Z,11.00
2024-02-01T07:54:11.665Z,11.09
2024-02-01T07:57:08.398Z,11.15
2024-02-01T07:59:49.955Z,11.07
2024-02-01T08:03:25.350Z,11.10
2024-02-01T08:06:25.509Z,11.13
2024-02-01T08:08:55.922Z,11.11
2024-02-01T08:11:28.327Z,10.99
2024-02-01T08:14:20.053Z,11.07
2024-02-01T08:16:57.318Z,11.01
2024-02-01T08:19:49.129Z,10.98
2024-02-01T08:22:24.699Z,11.08
2024-02-01T08:25:19.476Z,10.80
2024-02-01T08:28:36.963Z,10.88
2024-02-01T08:31:30.121Z,11.13
2024-02-01T08:34:28.374Z,11.19
2024-02-01T08:39:57.799Z,11.06
2024-02-01T08:42:34.397Z,11.09
2024-02-01T08:48:23.482Z,11.22
2024-02-01T08:50:57.261Z,11.22
2024-02-01T08:53:48.311Z,11.26
2024-02-01T08:57:05.280Z,11.27
2024-02-01T08:59:39.404Z,11.29
2024-02-01T09:02:35.463Z,11.25
2024-02-01T09:05:08.550Z,11.28
2024-02-01T09:07:59.647Z,11.35
2024-02-01T09:10:34.248Z,11.30
2024-02-01T09:13:10.532Z,11.31
2024-02-01T09:16:03.795Z,11.32
2024-02-01T09:18:36.594Z,11.11
2024-02-01T09:21:09.592Z,10.91
2024-02-01T09:24:02.290Z,10.76
2024-02-01T09:26:53.347Z,10.29
2024-02-01T09:29:28.769Z,10.47
2024-02-01T09:31:59.091Z,10.43
2024-02-01T09:37:54.561Z,10.74
2024-02-01T09:40:45.584Z,10.79
2024-02-01T09:43:37.217Z,10.81
2024-02-01T09:50:45.288Z,10.69
2024-02-01T09:53:02.001Z,10.84
2024-02-01T09:55:31.713Z,10.92
2024-02-01T09:58:23.309Z,10.92
2024-02-01T10:01:23.555Z,10.94
2024-02-01T10:09:48.547Z,10.97
2024-02-01T10:12:41.275Z,10.86
2024-02-01T10:15:38.675Z,10.88
2024-02-01T10:18:31.053Z,10.92
2024-02-01T10:21:01.397Z,10.80
2024-02-01T10:26:33.706Z,10.89
2024-02-01T10:29:22.417Z,10.74
2024-02-01T10:35:20.934Z,10.93
2024-02-01T10:38:35.861Z,10.96
2024-02-01T10:41:55.627Z,10.80
2024-02-01T10:44:36.099Z,10.42
2024-02-01T10:47:56.503Z,10.55
2024-02-01T10:50:44.368Z,10.43
2024-02-01T10:53:26.034Z,10.38
2024-02-01T10:56:36.644Z,10.31
2024-02-01T10:59:10.358Z,10.28
2024-02-01T11:04:41.911Z,10.68
2024-02-01T11:07:41.730Z,10.75
2024-02-01T11:10:34.875Z,10.81
2024-02-01T11:13:32.524Z,10.84
2024-02-01T11:16:23.023Z,10.79
2024-02-01T11:19:13.699Z,10.60
2024-02-01T11:22:20.685Z,10.63
2024-02-01T11:24:51.254Z,10.61
2024-02-01T11:27:48.905Z,10.04
2024-02-01T11:30:44.310Z,10.00
2024-02-01T11:33:36.893Z,9.75
2024-02-01T11:36:07.469Z,10.00
2024-02-01T11:38:39.546Z,9.96
2024-02-01T11:41:33.186Z,9.65
2024-02-01T11:44:26.289Z,9.78
2024-02-01T11:47:06.642Z,10.06
2024-02-01T11:50:02.677Z,9.86
2024-02-01T11:53:20.006Z,10.02
2024-02-01T11:58:40.653Z,10.14
2024-02-01T12:04:18.248Z,10.16
2024-02-01T12:07:13.575Z,10.08
2024-02-01T12:13:03.001Z,10.23
2024-02-01T12:16:14.119Z,10.30
2024-02-01T12:18:55.731Z,10.37
2024-02-01T12:22:17.702Z,10.32
2024-02-01T12:24:51.096Z,10.35
2024-02-01T12:28:01.438Z,10.36
2024-02-01T12:36:33.939Z,9.84
2024-02-01T12:38:35.266Z,10.15
2024-02-01T12:39:24.580Z,9.71
2024-02-01T12:41:59.531Z,9.87
2024-02-01T12:44:56.263Z,9.75
2024-02-01T12:48:15.517Z,9.90
2024-02-01T12:51:09.063Z,9.70
2024-02-01T12:54:10.945Z,9.79
2024-02-01T12:57:02.874Z,9.83
2024-02-01T12:59:32.507Z,9.78
2024-02-01T13:02:07.229Z,9.92
2024-02-01T13:04:37.475Z,9.63
2024-02-01T13:07:31.405Z,9.57
2024-02-01T13:10:50.743Z,9.75
2024-02-01T13:20:37.014Z,9.83
2024-02-01T13:23:44.205Z,9.49
2024-02-01T13:26:40.419Z,9.52
2024-02-01T13:29:50.563Z,9.47
2024-02-01T13:33:11.769Z,9.60
2024-02-01T13:38:04.274Z,9.84
2024-02-01T13:39:40.725Z,9.74
2024-02-01T13:45:39.370Z,9.63
2024-02-01T13:48:36.006Z,9.82
2024-02-01T13:51:27.130Z,9.83
2024-02-01T13:54:08.245Z,9.74
2024-02-01T13:56:41.459Z,9.86
2024-02-01T13:59:48.714Z,9.64
2024-02-01T14:02:29.168Z,9.44
2024-02-01T14:05:27.992Z,9.70
2024-02-01T14:08:36.823Z,9.49
2024-02-01T14:15:02.271Z,9.44
2024-02-01T14:17:36.187Z,9.68
2024-02-01T14:23:28.567Z,9.74
2024-02-01T14:29:34.593Z,9.75
2024-02-01T14:30:05.045Z,9.73
2024-02-01T14:33:34.308Z,9.61
2024-02-01T14:43:12.262Z,9.47
2024-02-01T14:46:58.731Z,9.65
2024-02-01T14:49:51.595Z,9.79
2024-02-01T14:59:50.878Z,9.91
2024-02-01T15:02:24.837Z,9.87
2024-02-01T15:05:23.545Z,9.93
2024-02-01T15:08:41.807Z,9.95
2024-02-01T15:11:43.715Z,9.84
2024-02-01T15:18:17.488Z,9.96
2024-02-01T15:27:59.725Z,9.85
2024-02-01T15:39:36.981Z,9.65
2024-02-01T15:41:54.043Z,9.72
2024-02-01T15:45:13.364Z,9.73
2024-02-01T15:51:46.479Z,9.58
2024-02-01T16:08:19.015Z,9.65
2024-02-01T16:19:40.900Z,9.75
2024-02-01T17:51:51.312Z,10.14
2024-02-01T19:22:58.233Z,10.55
2024-02-01T19:32:47.397Z,10.79
2024-02-01T19:35:30.417Z,10.82
2024-02-01T19:38:23.475Z,10.83
2024-02-01T19:54:42.405Z,10.72
2024-02-01T19:57:11.876Z,10.83
2024-02-01T20:00:04.865Z,10.75
2024-02-01T20:02:46.351Z,10.58
2024-02-01T20:05:16.283Z,10.76
2024-02-01T20:07:45.323Z,10.69
2024-02-01T20:10:14.504Z,10.76
2024-02-01T20:12:43.461Z,10.64
2024-02-01T20:15:28.658Z,10.80
2024-02-01T20:17:58.778Z,10.81
2024-02-01T20:20:29.080Z,10.89
2024-02-01T20:22:58.703Z,10.81
2024-02-01T20:25:37.520Z,10.64
2024-02-01T20:28:07.326Z,10.65
2024-02-01T20:30:41.325Z,10.76
2024-02-01T20:33:11.645Z,10.80
2024-02-01T20:35:44.923Z,10.84
2024-02-01T20:38:20.888Z,10.87
2024-02-01T20:40:56.341Z,10.83
2024-02-01T20:43:26.268Z,10.81
2024-02-01T21:15:38.182Z,11.32
2024-02-01T21:18:31.929Z,11.43
2024-02-01T21:21:09.621Z,11.55
2024-02-01T21:24:01.590Z,11.50
2024-02-01T21:27:02.758Z,11.71
2024-02-01T21:29:32.638Z,11.58
2024-02-01T21:32:22.872Z,11.67
2024-02-01T21:37:54.008Z,11.80
2024-02-01T21:40:28.005Z,11.93
2024-02-01T21:46:59.091Z,11.78
2024-02-01T21:49:34.154Z,12.01
2024-02-01T21:52:11.101Z,11.56
2024-02-01T21:55:00.670Z,11.89
2024-02-01T21:57:30.481Z,12.13
2024-02-01T22:00:34.639Z,11.94
2024-02-01T22:03:19.134Z,11.71
2024-02-01T22:05:59.037Z,11.54
2024-02-01T22:08:45.545Z,11.81
2024-02-01T22:11:23.843Z,11.61
2024-02-01T22:13:59.928Z,11.88
2024-02-01T22:17:15.919Z,11.91
2024-02-01T22:19:48.903Z,11.81
2024-02-01T22:22:21.960Z,11.77
2024-02-01T22:25:18.919Z,11.69
2024-02-01T22:28:11.830Z,11.61
2024-02-01T22:30:43.042Z,11.88
2024-02-01T22:33:16.545Z,11.91
2024-02-01T22:36:04.818Z,11.95
2024-02-01T22:38:36.422Z,12.07
2024-02-01T22:41:08.729Z,12.38
2024-02-01T22:43:43.913Z,12.82
2024-02-01T22:49:35.825Z,13.36
2024-02-01T22:51:40.074Z,13.09
2024-02-01T22:52:29.267Z,14.22
2024-02-01T22:55:23.184Z,14.60
2024-02-01T22:57:53.062Z,15.01
2024-02-01T23:00:53.304Z,15.35
2024-02-01T23:03:43.553Z,16.11
2024-02-01T23:10:09.771Z,16.05
2024-02-01T23:13:00.978Z,16.99
2024-02-01T23:15:39.393Z,16.28
2024-02-01T23:18:25.664Z,16.98
2024-02-01T23:21:02.882Z,17.52
2024-02-01T23:23:52.746Z,17.45
2024-02-01T23:26:29.346Z,15.76
2024-02-01T23:29:18.774Z,17.02
2024-02-01T23:31:51.704Z,16.64
2024-02-01T23:34:24.285Z,16.41
2024-02-01T23:36:53.588Z,16.73
2024-02-01T23:39:27.440Z,16.96
2024-02-01T23:41:59.213Z,17.03
2024-02-01T23:44:28.830Z,16.46
2024-02-01T23:47:50.837Z,16.84
2024-02-01T23:50:23.037Z,15.83
2024-02-01T23:53:10.525Z,15.78
2024-02-01T23:55:53.957Z,15.43
2024-02-01T23:59:10.658Z,15.07
